Time;durP1;ratioP1;P1;durP2;ratioP2;P2;SDS_P1;SDS_P2;PMS_P1;PMS_P2;Temp;Humidity;BMP_temperature;BMP_pressure;BME280_temperature;BME280_humidity;BME280_pressure;Samples;Min_cycle;Max_cycle;Signal;HPM_P1;HPM_P2
2023/01/08 00:01:07;;;;;;;5.03;3.60;;;8.90;99.90;;;;;;4950560;28;20239;-60
2023/01/08 00:03:37;;;;;;;4.57;3.90;;;8.90;99.90;;;;;;4951083;28;20637;-60
2023/01/08 00:06:07;;;;;;;4.20;3.80;;;8.90;99.90;;;;;;4951517;29;20231;-60
2023/01/08 00:08:35;;;;;;;4.67;3.60;;;8.90;99.90;;;;;;4952100;28;20215;-60
2023/01/08 00:11:03;;;;;;;4.30;3.90;;;8.90;99.90;;;;;;4947753;28;20232;-60
2023/01/08 00:13:33;;;;;;;4.60;4.20;;;9.00;99.90;;;;;;4956462;29;20592;-60
2023/01/08 00:16:03;;;;;;;5.90;4.20;;;9.00;99.90;;;;;;4957216;29;20576;-60
2023/01/08 00:18:32;;;;;;;5.57;4.37;;;9.00;99.90;;;;;;4956556;29;20232;-61
2023/01/08 00:21:00;;;;;;;5.97;3.80;;;9.00;99.90;;;;;;4956750;28;20228;-60
2023/01/08 00:23:28;;;;;;;3.87;3.47;;;9.00;99.90;;;;;;4956634;29;20227;-60
2023/01/08 00:25:57;;;;;;;4.10;3.70;;;9.00;99.90;;;;;;4957123;29;20298;-60
2023/01/08 00:28:25;;;;;;;5.10;3.67;;;9.00;99.90;;;;;;4956044;29;20278;-59
2023/01/08 00:30:54;;;;;;;4.77;3.97;;;9.10;99.90;;;;;;4956199;28;20243;-59
2023/01/08 00:33:22;;;;;;;3.80;3.50;;;9.10;99.90;;;;;;4956774;29;20298;-60
2023/01/08 00:35:50;;;;;;;4.13;3.70;;;9.10;99.90;;;;;;4956224;29;20223;-61
2023/01/08 00:38:18;;;;;;;5.03;3.80;;;9.00;99.90;;;;;;4956806;29;20289;-61
2023/01/08 00:40:48;;;;;;;4.10;3.70;;;9.00;99.90;;;;;;4956476;28;20235;-60
2023/01/08 00:43:16;;;;;;;4.60;4.00;;;9.10;99.90;;;;;;4956647;29;20234;-60
2023/01/08 00:45:44;;;;;;;5.10;4.17;;;9.10;99.90;;;;;;4956201;29;20231;-60
2023/01/08 00:48:13;;;;;;;4.10;3.70;;;9.10;99.90;;;;;;4956449;28;20322;-59
2023/01/08 00:50:41;;;;;;;4.83;4.00;;;9.10;99.90;;;;;;4956474;28;20231;-60
2023/01/08 00:53:09;;;;;;;4.67;3.80;;;9.10;99.90;;;;;;4956415;29;20235;-60
2023/01/08 00:55:37;;;;;;;5.30;3.67;;;9.10;99.90;;;;;;4956176;29;20337;-60
2023/01/08 00:58:06;;;;;;;4.00;3.40;;;9.10;99.90;;;;;;4956403;29;20283;-60
2023/01/08 01:00:34;;;;;;;4.37;3.60;;;9.20;99.90;;;;;;4955200;28;20235;-59
2023/01/08 01:03:02;;;;;;;4.30;3.83;;;9.20;99.90;;;;;;4956207;29;20216;-60
2023/01/08 01:05:32;;;;;;;5.27;3.90;;;9.20;99.90;;;;;;4955815;29;20254;-60
2023/01/08 01:08:00;;;;;;;3.80;3.50;;;9.20;99.90;;;;;;4956146;28;20231;-61
2023/01/08 01:10:28;;;;;;;4.30;3.90;;;9.20;99.90;;;;;;4955860;29;20242;-60
2023/01/08 01:12:56;;;;;;;4.00;3.43;;;9.30;99.90;;;;;;4955923;29;20231;-60
2023/01/08 01:15:24;;;;;;;5.27;3.73;;;9.30;99.90;;;;;;4955635;29;20238;-58
2023/01/08 01:17:52;;;;;;;4.13;3.47;;;9.30;99.90;;;;;;4955837;29;20219;-60
2023/01/08 01:20:21;;;;;;;4.17;3.77;;;9.30;99.90;;;;;;4956036;29;20291;-60
2023/01/08 01:22:51;;;;;;;3.93;3.60;;;9.30;99.90;;;;;;4955540;28;20224;-61
2023/01/08 01:25:19;;;;;;;4.47;3.77;;;9.30;99.90;;;;;;4955559;28;20231;-59
2023/01/08 01:27:47;;;;;;;5.30;3.57;;;9.30;99.90;;;;;;4955484;29;20228;-61
2023/01/08 01:30:15;;;;;;;5.07;4.00;;;9.30;99.90;;;;;;4955046;28;20227;-60
2023/01/08 01:32:44;;;;;;;4.80;3.87;;;9.30;99.90;;;;;;4955094;29;20237;-61
2023/01/08 01:35:11;;;;;;;4.57;3.50;;;9.30;99.90;;;;;;4948206;29;20235;-60
2023/01/08 01:37:40;;;;;;;4.10;3.70;;;9.30;99.90;;;;;;4955596;28;20220;-60
2023/01/08 01:40:10;;;;;;;4.10;3.70;;;9.40;99.90;;;;;;4955468;29;20231;-60
2023/01/08 01:42:43;;;;;;;4.03;3.63;;;9.40;99.90;;;;;;4955269;29;20223;-60
2023/01/08 01:45:19;;;;;;;4.17;3.77;;;9.40;99.90;;;;;;4947532;29;20227;-60
2023/01/08 01:47:50;;;;;;;4.00;3.60;;;9.40;99.90;;;;;;4955443;29;20675;-60
2023/01/08 01:50:22;;;;;;;4.73;3.53;;;9.30;99.90;;;;;;4954901;28;20251;-60
2023/01/08 01:52:55;;;;;;;6.77;3.50;;;9.30;99.90;;;;;;4954945;29;20231;-60
2023/01/08 01:55:26;;;;;;;4.37;3.97;;;9.30;99.90;;;;;;4955389;28;20242;-60
2023/01/08 01:58:04;;;;;;;4.80;4.27;;;9.30;99.90;;;;;;4947969;28;20705;-60
2023/01/08 02:00:33;;;;;;;4.83;3.87;;;9.20;99.90;;;;;;4954378;28;20559;-60
2023/01/08 02:03:01;;;;;;;4.60;4.07;;;9.30;99.90;;;;;;4955116;28;20228;-60
2023/01/08 02:05:38;;;;;;;4.73;4.10;;;9.30;99.90;;;;;;4954681;28;20604;-60
2023/01/08 02:08:10;;;;;;;4.70;4.20;;;9.30;99.90;;;;;;4954994;28;20250;-60
2023/01/08 02:10:48;;;;;;;4.50;4.10;;;9.20;99.90;;;;;;4954566;29;20240;-59
2023/01/08 02:13:22;;;;;;;3.70;3.40;;;9.20;99.90;;;;;;4954798;29;20235;-60
2023/01/08 02:15:56;;;;;;;5.03;4.17;;;9.20;99.90;;;;;;4954703;29;20234;-61
2023/01/08 02:18:30;;;;;;;4.40;3.97;;;9.20;99.90;;;;;;4955077;29;20709;-58
2023/01/08 02:21:04;;;;;;;4.23;3.87;;;9.10;99.90;;;;;;4955012;29;20238;-61
2023/01/08 02:23:42;;;;;;;4.13;3.73;;;9.10;99.90;;;;;;4935903;29;20562;-60
2023/01/08 02:26:42;;;;;;;4.00;3.63;;;9.10;99.90;;;;;;4939383;29;20242;-60
2023/01/08 02:32:10;;;;;;;5.73;3.80;;;9.00;99.90;;;;;;4948634;28;20722;-60
2023/01/08 02:34:39;;;;;;;4.07;3.67;;;9.10;99.90;;;;;;4953274;28;20282;-60
2023/01/08 02:37:09;;;;;;;4.20;3.80;;;9.00;99.90;;;;;;4955184;29;20238;-60
2023/01/08 02:39:49;;;;;;;4.27;3.87;;;9.00;99.90;;;;;;4954379;29;20234;-61
2023/01/08 02:42:27;;;;;;;4.37;3.90;;;8.90;99.90;;;;;;4954616;28;20246;-60
2023/01/08 02:44:58;;;;;;;4.10;3.70;;;9.00;99.90;;;;;;4954730;28;20231;-60
2023/01/08 02:47:34;;;;;;;4.57;3.83;;;8.90;99.90;;;;;;4954637;29;20227;-60
2023/01/08 02:50:14;;;;;;;4.73;4.00;;;8.90;99.90;;;;;;4939418;29;20245;-60
2023/01/08 02:52:49;;;;;;;4.53;4.13;;;8.90;99.90;;;;;;4954374;29;20617;-60
2023/01/08 02:55:20;;;;;;;4.00;3.50;;;8.90;99.90;;;;;;4954481;29;20227;-60
2023/01/08 02:57:51;;;;;;;4.30;3.90;;;8.90;99.90;;;;;;4954010;28;20235;-60
2023/01/08 03:00:20;;;;;;;3.97;3.63;;;8.90;99.90;;;;;;4953830;28;20227;-60
2023/01/08 03:02:52;;;;;;;4.47;3.70;;;8.90;99.90;;;;;;4953573;28;20698;-60
2023/01/08 03:05:25;;;;;;;4.30;3.90;;;8.90;99.90;;;;;;4954226;29;20227;-60
2023/01/08 03:07:54;;;;;;;4.73;3.80;;;8.90;99.90;;;;;;4954414;29;20243;-60
2023/01/08 03:10:26;;;;;;;4.20;3.70;;;8.90;99.90;;;;;;4954269;29;20687;-60
2023/01/08 03:12:58;;;;;;;4.27;3.93;;;8.90;99.90;;;;;;4954119;29;20231;-61
2023/01/08 03:15:31;;;;;;;4.37;3.97;;;8.90;99.90;;;;;;4954030;28;20239;-59
2023/01/08 03:18:04;;;;;;;3.93;3.63;;;8.80;99.90;;;;;;4954480;29;20234;-61
2023/01/08 03:20:35;;;;;;;4.10;3.70;;;8.90;99.90;;;;;;4954291;29;20742;-61
2023/01/08 03:23:08;;;;;;;4.77;3.60;;;8.80;99.90;;;;;;4954357;28;20258;-60
2023/01/08 03:25:41;;;;;;;4.27;3.87;;;8.80;99.90;;;;;;4953925;28;20235;-60
2023/01/08 03:28:15;;;;;;;6.03;3.60;;;8.80;99.90;;;;;;4954284;28;20231;-61
2023/01/08 03:30:45;;;;;;;4.43;4.03;;;8.80;99.90;;;;;;4953571;28;20242;-60
2023/01/08 03:33:15;;;;;;;4.90;4.00;;;8.90;99.90;;;;;;4953406;28;20241;-60
2023/01/08 03:35:47;;;;;;;5.27;3.90;;;8.90;99.90;;;;;;4954165;28;20231;-60
2023/01/08 03:38:20;;;;;;;4.23;3.73;;;8.90;99.90;;;;;;4953871;29;20239;-61
2023/01/08 03:40:53;;;;;;;4.07;3.67;;;9.00;99.90;;;;;;4954244;28;20231;-60
2023/01/08 03:43:23;;;;;;;4.70;4.20;;;9.00;99.90;;;;;;4953792;29;20231;-60
2023/01/08 03:45:55;;;;;;;4.83;3.70;;;9.00;99.90;;;;;;4950977;28;20704;-60
2023/01/08 03:48:24;;;;;;;3.97;3.57;;;9.00;99.90;;;;;;4944203;29;20232;-60
2023/01/08 03:50:52;;;;;;;4.33;3.93;;;9.10;99.90;;;;;;4957923;28;20232;-61
2023/01/08 03:53:21;;;;;;;5.10;4.23;;;9.10;99.90;;;;;;4956957;29;20235;-60
2023/01/08 03:55:49;;;;;;;5.10;3.70;;;9.10;99.90;;;;;;4957252;29;20234;-61
2023/01/08 03:58:17;;;;;;;5.30;4.37;;;9.10;99.90;;;;;;4957722;29;20227;-59
2023/01/08 04:00:46;;;;;;;3.90;3.60;;;9.20;99.90;;;;;;4956223;28;20231;-60
2023/01/08 04:03:14;;;;;;;4.17;3.70;;;9.10;99.90;;;;;;4957235;29;20231;-60
2023/01/08 04:05:42;;;;;;;4.87;3.90;;;9.10;99.90;;;;;;4956871;29;20591;-61
2023/01/08 04:08:10;;;;;;;4.77;3.60;;;9.10;99.90;;;;;;4957629;28;20231;-60
2023/01/08 04:10:38;;;;;;;3.80;3.50;;;9.10;99.90;;;;;;4956853;28;20231;-61
2023/01/08 04:13:06;;;;;;;4.23;3.83;;;9.10;99.90;;;;;;4957288;29;20227;-61
2023/01/08 04:15:34;;;;;;;6.00;3.57;;;9.10;99.90;;;;;;4957217;29;20232;-60
2023/01/08 04:18:04;;;;;;;4.33;3.93;;;9.20;99.90;;;;;;4957177;28;20286;-60
2023/01/08 04:20:32;;;;;;;5.73;3.83;;;9.10;99.90;;;;;;4956882;29;20231;-60
2023/01/08 04:23:00;;;;;;;5.57;3.97;;;9.10;99.90;;;;;;4956836;29;20223;-60
2023/01/08 04:25:28;;;;;;;4.00;3.60;;;9.20;99.90;;;;;;4956632;29;20224;-60
2023/01/08 04:27:56;;;;;;;4.67;4.10;;;9.20;99.90;;;;;;4956763;29;20230;-61
2023/01/08 04:30:24;;;;;;;4.33;4.03;;;9.20;99.90;;;;;;4956085;28;20239;-60
2023/01/08 04:32:52;;;;;;;4.40;4.00;;;9.20;99.90;;;;;;4956403;29;20687;-60
2023/01/08 04:35:21;;;;;;;3.87;3.40;;;9.20;99.90;;;;;;4956530;28;20587;-61
2023/01/08 04:37:49;;;;;;;3.70;3.40;;;9.20;99.90;;;;;;4956529;28;20231;-60
2023/01/08 04:40:17;;;;;;;3.87;3.53;;;9.20;99.90;;;;;;4956635;28;20239;-60
2023/01/08 04:42:46;;;;;;;4.70;3.93;;;9.20;99.90;;;;;;4956145;29;20227;-60
2023/01/08 04:45:14;;;;;;;4.33;3.70;;;9.20;99.90;;;;;;4956575;29;20227;-60
2023/01/08 04:47:42;;;;;;;4.27;3.80;;;9.20;99.90;;;;;;4956240;28;20239;-60
2023/01/08 04:50:10;;;;;;;4.30;3.90;;;9.20;99.90;;;;;;4948423;29;20223;-61
2023/01/08 04:52:39;;;;;;;6.17;4.13;;;9.20;99.90;;;;;;4956420;29;20402;-60
2023/01/08 04:55:08;;;;;;;4.07;3.50;;;9.20;99.90;;;;;;4956580;28;20235;-60
2023/01/08 04:57:36;;;;;;;4.30;3.90;;;9.10;99.90;;;;;;4955285;28;20231;-61
2023/01/08 05:00:05;;;;;;;4.27;3.87;;;9.10;99.90;;;;;;4955647;28;20231;-61
2023/01/08 05:02:34;;;;;;;4.53;4.10;;;9.10;99.90;;;;;;4955408;28;20250;-60
2023/01/08 05:05:02;;;;;;;4.70;4.27;;;9.00;99.90;;;;;;4956371;29;20228;-61
2023/01/08 05:07:30;;;;;;;5.30;4.07;;;9.00;99.90;;;;;;4956187;29;20228;-61
2023/01/08 05:10:01;;;;;;;5.33;3.73;;;8.90;99.90;;;;;;4956361;29;20699;-60
2023/01/08 05:12:29;;;;;;;4.50;4.00;;;8.90;99.90;;;;;;4955687;28;20238;-60
2023/01/08 05:14:57;;;;;;;4.90;3.67;;;8.90;99.90;;;;;;4955942;28;20239;-60
2023/01/08 05:17:25;;;;;;;4.63;3.90;;;8.90;99.90;;;;;;4956072;28;20224;-59
2023/01/08 05:19:53;;;;;;;5.63;4.33;;;8.80;99.90;;;;;;4955968;28;20623;-60
2023/01/08 05:22:22;;;;;;;4.50;4.10;;;8.80;99.90;;;;;;4955806;29;20313;-60
2023/01/08 05:24:50;;;;;;;7.43;3.93;;;8.80;99.90;;;;;;4955924;29;20239;-60
2023/01/08 05:27:19;;;;;;;6.70;4.77;;;8.80;99.90;;;;;;4955795;29;20341;-60
2023/01/08 05:29:47;;;;;;;5.27;4.50;;;8.70;99.90;;;;;;4955542;28;20232;-60
2023/01/08 05:32:16;;;;;;;7.80;4.37;;;8.70;99.90;;;;;;4955363;28;20711;-59
2023/01/08 05:34:45;;;;;;;5.67;4.33;;;8.70;99.90;;;;;;4955075;29;21682;-60
2023/01/08 05:37:13;;;;;;;7.63;4.80;;;8.70;99.90;;;;;;4944396;29;20239;-60
2023/01/08 05:39:41;;;;;;;7.10;4.50;;;8.70;99.90;;;;;;4955765;28;20710;-60
2023/01/08 05:42:09;;;;;;;7.23;4.60;;;8.70;99.90;;;;;;4955561;28;20229;-61
2023/01/08 05:44:38;;;;;;;7.80;4.90;;;8.70;99.90;;;;;;4955549;28;20583;-60
2023/01/08 05:47:06;;;;;;;6.33;4.30;;;8.70;99.90;;;;;;4954970;29;20228;-60
2023/01/08 05:49:34;;;;;;;7.50;4.57;;;8.70;99.90;;;;;;4955055;28;20232;-60
2023/01/08 05:52:02;;;;;;;7.23;4.43;;;8.70;99.90;;;;;;4954757;29;20626;-59
2023/01/08 05:54:30;;;;;;;5.27;4.40;;;8.80;99.90;;;;;;4953147;29;20232;-60
2023/01/08 05:56:58;;;;;;;5.20;4.43;;;8.80;99.90;;;;;;4955094;29;20223;-61
2023/01/08 05:59:27;;;;;;;4.33;3.93;;;8.80;99.90;;;;;;4954863;28;20690;-60
2023/01/08 06:01:56;;;;;;;5.00;4.13;;;8.80;99.90;;;;;;4954730;28;20247;-60
2023/01/08 06:04:25;;;;;;;5.43;4.23;;;8.80;99.90;;;;;;4955276;29;20223;-60
2023/01/08 06:06:53;;;;;;;5.00;4.40;;;8.70;99.90;;;;;;4955634;28;20351;-60
2023/01/08 06:09:21;;;;;;;4.50;4.10;;;8.80;99.90;;;;;;4955399;28;20727;-61
2023/01/08 06:11:49;;;;;;;4.60;4.13;;;8.80;99.90;;;;;;4955006;29;20690;-60
2023/01/08 06:14:17;;;;;;;5.43;4.10;;;8.70;99.90;;;;;;4955536;29;20231;-60
2023/01/08 06:16:45;;;;;;;4.87;4.40;;;8.80;99.90;;;;;;4955010;29;20239;-60
2023/01/08 06:19:15;;;;;;;4.90;4.40;;;8.80;99.90;;;;;;4954877;28;20234;-60
2023/01/08 06:21:43;;;;;;;5.17;3.80;;;8.80;99.90;;;;;;4955010;28;20227;-60
2023/01/08 06:24:11;;;;;;;4.40;4.00;;;8.80;99.90;;;;;;4954422;28;20231;-60
2023/01/08 06:26:39;;;;;;;6.43;4.40;;;8.80;99.90;;;;;;4954478;29;20318;-61
2023/01/08 06:29:07;;;;;;;6.23;4.37;;;8.80;99.90;;;;;;4954690;28;20636;-60
2023/01/08 06:31:35;;;;;;;4.93;4.23;;;8.80;99.90;;;;;;4953502;28;20227;-59
2023/01/08 06:34:03;;;;;;;4.80;4.00;;;8.80;99.90;;;;;;4954406;28;20342;-60
2023/01/08 06:36:33;;;;;;;4.33;3.93;;;8.80;99.90;;;;;;4954247;28;20695;-60
2023/01/08 06:39:01;;;;;;;4.40;4.00;;;8.90;99.90;;;;;;4954694;29;20331;-60
2023/01/08 06:41:29;;;;;;;4.77;4.20;;;8.90;99.90;;;;;;4951819;29;20234;-60
2023/01/08 06:43:57;;;;;;;4.77;4.03;;;8.90;99.90;;;;;;4954321;29;20253;-60
2023/01/08 06:46:25;;;;;;;4.50;4.10;;;8.90;99.90;;;;;;4954542;29;20703;-59
2023/01/08 06:48:53;;;;;;;5.83;4.10;;;8.90;99.90;;;;;;4954220;29;20231;-61
2023/01/08 06:51:21;;;;;;;5.40;3.90;;;8.90;99.90;;;;;;4954660;28;20572;-60
2023/01/08 06:53:50;;;;;;;4.63;3.57;;;8.90;99.90;;;;;;4954383;28;20227;-60
2023/01/08 06:56:18;;;;;;;5.53;4.07;;;8.90;99.90;;;;;;4954724;28;20239;-61
2023/01/08 06:58:46;;;;;;;5.73;4.43;;;8.90;99.90;;;;;;4954132;28;20232;-60
2023/01/08 07:01:16;;;;;;;5.73;4.60;;;8.90;99.90;;;;;;4953775;28;20247;-61
2023/01/08 07:03:44;;;;;;;5.90;4.40;;;8.80;99.90;;;;;;4954326;29;20564;-60
2023/01/08 07:06:15;;;;;;;4.20;3.70;;;8.80;99.90;;;;;;4954548;28;20219;-61
2023/01/08 07:08:43;;;;;;;4.47;4.07;;;8.80;99.90;;;;;;4953516;28;20231;-60
2023/01/08 07:11:13;;;;;;;5.20;4.23;;;8.80;99.90;;;;;;4954586;29;20326;-61
2023/01/08 07:13:42;;;;;;;3.93;3.53;;;8.80;99.90;;;;;;4954444;29;20243;-61
2023/01/08 07:16:12;;;;;;;5.90;4.07;;;8.80;99.90;;;;;;4954443;29;20227;-61
2023/01/08 07:18:41;;;;;;;4.53;3.40;;;8.70;99.90;;;;;;4954107;28;20223;-60
2023/01/08 07:21:09;;;;;;;3.97;3.60;;;8.70;99.90;;;;;;4937575;29;20295;-60
2023/01/08 07:23:37;;;;;;;4.63;3.73;;;8.70;99.90;;;;;;4938777;29;20688;-60
2023/01/08 07:26:07;;;;;;;4.47;3.80;;;8.60;99.90;;;;;;4950329;29;20219;-60
2023/01/08 07:28:36;;;;;;;4.87;3.70;;;8.60;99.90;;;;;;4958071;28;20290;-60
2023/01/08 07:31:05;;;;;;;4.87;4.00;;;8.60;99.90;;;;;;4957573;28;20270;-61
2023/01/08 07:33:34;;;;;;;4.00;3.60;;;8.60;99.90;;;;;;4957932;28;20231;-59
2023/01/08 07:36:02;;;;;;;3.80;3.50;;;8.60;99.90;;;;;;4957836;28;20226;-60
2023/01/08 07:38:30;;;;;;;4.07;3.70;;;8.60;99.90;;;;;;4957584;28;20754;-60
2023/01/08 07:40:59;;;;;;;4.20;3.80;;;8.60;99.90;;;;;;4957793;29;20322;-60
2023/01/08 07:43:28;;;;;;;5.57;3.73;;;8.60;99.90;;;;;;4957385;29;20248;-59
2023/01/08 07:45:58;;;;;;;4.00;3.63;;;8.60;99.90;;;;;;4957659;29;20227;-61
2023/01/08 07:48:26;;;;;;;5.00;4.03;;;8.60;99.90;;;;;;4957824;29;20227;-58
2023/01/08 07:50:54;;;;;;;4.10;3.50;;;8.60;99.90;;;;;;4957906;29;20286;-60
2023/01/08 07:53:22;;;;;;;4.80;3.97;;;8.60;99.90;;;;;;4957769;28;20239;-60
2023/01/08 07:55:50;;;;;;;4.33;3.93;;;8.60;99.90;;;;;;4957527;29;20683;-60
2023/01/08 07:58:18;;;;;;;4.63;4.00;;;8.60;99.90;;;;;;4957683;28;20235;-60
2023/01/08 08:00:46;;;;;;;5.00;4.50;;;8.60;99.90;;;;;;4956923;28;20728;-60
2023/01/08 08:03:15;;;;;;;5.40;4.53;;;8.60;99.90;;;;;;4957508;28;20238;-61
2023/01/08 08:05:43;;;;;;;4.47;4.07;;;8.60;99.90;;;;;;4957145;28;20239;-60
2023/01/08 08:08:13;;;;;;;5.50;4.47;;;8.60;99.90;;;;;;4957194;29;20237;-61
2023/01/08 08:10:42;;;;;;;6.03;4.73;;;8.60;99.90;;;;;;4957138;29;20226;-60
2023/01/08 08:13:11;;;;;;;4.77;4.07;;;8.60;99.90;;;;;;4957470;29;20235;-60
2023/01/08 08:15:40;;;;;;;4.73;4.23;;;8.60;99.90;;;;;;4956917;28;20241;-60
2023/01/08 08:18:09;;;;;;;6.40;4.00;;;8.60;99.90;;;;;;4957130;28;20239;-60
2023/01/08 08:20:39;;;;;;;4.67;4.27;;;8.60;99.90;;;;;;4956464;29;20223;-60
2023/01/08 08:23:09;;;;;;;5.33;4.20;;;8.60;99.90;;;;;;4956831;28;20227;-60
2023/01/08 08:25:37;;;;;;;5.40;4.60;;;8.60;99.90;;;;;;4956351;28;20263;-60
2023/01/08 08:28:06;;;;;;;4.93;4.43;;;8.60;99.90;;;;;;4956397;28;20224;-60
2023/01/08 08:30:35;;;;;;;6.03;4.40;;;8.60;99.90;;;;;;4956056;28;20239;-60
2023/01/08 08:33:05;;;;;;;5.80;5.13;;;8.60;99.90;;;;;;4953163;28;20223;-59
2023/01/08 08:35:34;;;;;;;7.07;4.83;;;8.60;99.90;;;;;;4956079;28;20601;-60
2023/01/08 08:38:04;;;;;;;7.40;4.77;;;8.60;99.90;;;;;;4956516;28;20695;-60
2023/01/08 08:40:32;;;;;;;5.53;4.50;;;8.60;99.90;;;;;;4955756;29;20241;-60
2023/01/08 08:43:02;;;;;;;5.60;4.53;;;8.60;99.90;;;;;;4956600;28;20319;-60
2023/01/08 08:45:30;;;;;;;5.47;4.90;;;8.60;99.90;;;;;;4956766;29;20231;-60
2023/01/08 08:47:58;;;;;;;5.73;4.70;;;8.60;99.90;;;;;;4956575;28;20242;-61
2023/01/08 08:50:26;;;;;;;7.27;4.77;;;8.60;99.90;;;;;;4956526;28;20235;-60
2023/01/08 08:53:02;;;;;;;5.73;4.77;;;8.60;99.90;;;;;;4956345;29;20587;-60
2023/01/08 08:55:32;;;;;;;6.57;5.00;;;8.60;99.90;;;;;;4956244;29;20631;-60
2023/01/08 08:58:05;;;;;;;7.43;5.03;;;8.70;99.90;;;;;;4955449;29;20691;-60
2023/01/08 09:00:34;;;;;;;6.93;5.00;;;8.70;99.90;;;;;;4955377;28;20238;-60
2023/01/08 09:03:02;;;;;;;4.83;4.37;;;8.70;99.90;;;;;;4955789;29;20227;-60
2023/01/08 09:05:30;;;;;;;4.90;4.40;;;8.70;99.90;;;;;;4956315;29;20282;-60
2023/01/08 09:07:58;;;;;;;4.53;4.13;;;8.70;99.90;;;;;;4956267;28;20216;-60
2023/01/08 09:10:26;;;;;;;5.43;4.87;;;8.70;99.90;;;;;;4956263;28;20270;-59
2023/01/08 09:12:56;;;;;;;4.97;4.50;;;8.70;99.90;;;;;;4956467;28;20254;-61
2023/01/08 09:15:24;;;;;;;5.53;4.27;;;8.80;99.90;;;;;;4956465;28;20231;-60
2023/01/08 09:17:55;;;;;;;5.93;4.60;;;8.80;99.90;;;;;;4956107;28;20628;-60
2023/01/08 09:20:24;;;;;;;5.33;3.83;;;8.80;99.90;;;;;;4955562;29;20228;-61
2023/01/08 09:22:52;;;;;;;4.67;4.27;;;8.80;99.90;;;;;;4953537;29;20223;-61
2023/01/08 09:25:20;;;;;;;4.70;4.30;;;8.80;99.90;;;;;;4955804;28;20236;-61
2023/01/08 09:27:48;;;;;;;5.47;4.50;;;8.80;99.90;;;;;;4955834;29;20243;-60
2023/01/08 09:30:18;;;;;;;5.83;5.23;;;8.90;99.90;;;;;;4953958;28;20240;-60
2023/01/08 09:32:48;;;;;;;6.17;4.70;;;8.90;99.90;;;;;;4953114;29;20223;-60
2023/01/08 09:35:16;;;;;;;5.93;4.67;;;8.90;99.90;;;;;;4955610;28;20223;-60
2023/01/08 09:37:44;;;;;;;6.47;4.93;;;8.90;99.90;;;;;;4952616;29;20261;-60
2023/01/08 09:40:16;;;;;;;5.60;4.27;;;8.90;99.90;;;;;;4954396;29;20231;-60
2023/01/08 09:42:45;;;;;;;4.90;4.20;;;9.00;99.90;;;;;;4952491;28;20227;-61
2023/01/08 09:45:23;;;;;;;6.03;3.97;;;9.00;99.90;;;;;;4954886;28;20330;-60
2023/01/08 09:47:51;;;;;;;5.57;4.07;;;9.00;99.90;;;;;;4955139;28;20230;-61
2023/01/08 09:50:20;;;;;;;5.50;4.40;;;9.10;99.90;;;;;;4954858;29;20235;-60
2023/01/08 09:52:48;;;;;;;5.27;4.07;;;9.20;99.90;;;;;;4954554;28;20234;-60
2023/01/08 09:55:30;;;;;;;4.23;3.80;;;9.20;99.90;;;;;;4955109;29;20259;-60
2023/01/08 09:58:00;;;;;;;4.47;4.07;;;9.30;99.90;;;;;;4954878;29;20259;-60
2023/01/08 10:00:34;;;;;;;4.87;3.40;;;9.30;99.90;;;;;;4954696;28;20242;-60
2023/01/08 10:03:02;;;;;;;4.30;3.90;;;9.20;99.90;;;;;;4955265;28;20584;-60
2023/01/08 10:05:30;;;;;;;5.00;3.60;;;9.20;99.90;;;;;;4955244;28;20239;-61
2023/01/08 10:07:59;;;;;;;5.83;4.00;;;9.20;99.90;;;;;;4954882;28;20235;-60
2023/01/08 10:10:30;;;;;;;4.77;4.03;;;9.20;99.90;;;;;;4955128;28;20730;-60
2023/01/08 10:12:59;;;;;;;6.07;4.27;;;9.20;99.90;;;;;;4955068;28;20242;-61
2023/01/08 10:15:27;;;;;;;5.90;4.23;;;9.20;99.90;;;;;;4954552;28;20227;-60
2023/01/08 10:18:02;;;;;;;4.47;4.07;;;9.20;99.90;;;;;;4954774;29;20247;-61
2023/01/08 10:20:31;;;;;;;4.17;3.77;;;9.20;99.90;;;;;;4954748;28;20626;-60
2023/01/08 10:23:10;;;;;;;4.57;4.03;;;9.20;99.90;;;;;;4955113;28;20688;-61
2023/01/08 10:25:51;;;;;;;4.73;4.20;;;9.20;99.90;;;;;;4954551;28;20219;-60
2023/01/08 10:28:21;;;;;;;4.30;3.90;;;9.20;99.90;;;;;;4954455;28;20618;-61
2023/01/08 10:30:51;;;;;;;4.40;4.00;;;9.20;99.90;;;;;;4954356;28;20263;-61
2023/01/08 10:33:24;;;;;;;5.30;3.70;;;9.20;99.90;;;;;;4954626;28;20325;-61
2023/01/08 10:35:57;;;;;;;3.50;2.90;;;9.30;99.90;;;;;;4954812;28;20231;-60
2023/01/08 10:38:29;;;;;;;6.97;3.03;;;9.30;99.90;;;;;;4954899;28;20258;-59
2023/01/08 10:41:01;;;;;;;3.23;2.80;;;9.30;99.90;;;;;;4946597;28;20251;-60
2023/01/08 10:43:34;;;;;;;4.17;3.10;;;9.20;99.90;;;;;;4948756;28;20624;-59
2023/01/08 10:46:04;;;;;;;3.10;2.53;;;9.20;99.90;;;;;;4947852;29;20223;-55
2023/01/08 10:48:39;;;;;;;3.30;2.43;;;9.30;99.90;;;;;;4948830;29;20219;-58
2023/01/08 10:51:14;;;;;;;3.20;2.77;;;9.40;99.90;;;;;;4948759;28;20231;-60
2023/01/08 10:53:42;;;;;;;4.07;2.83;;;9.40;99.90;;;;;;4948282;29;20614;-61
2023/01/08 10:56:20;;;;;;;3.20;2.90;;;9.40;99.90;;;;;;4948426;29;20224;-61
2023/01/08 10:58:49;;;;;;;2.77;2.57;;;9.40;99.90;;;;;;4948137;29;20318;-60
2023/01/08 11:01:22;;;;;;;4.13;2.87;;;9.40;99.90;;;;;;4947330;28;20242;-60
2023/01/08 11:03:53;;;;;;;4.90;2.67;;;9.30;99.90;;;;;;4948124;29;20245;-60
2023/01/08 11:06:23;;;;;;;3.77;2.97;;;9.30;99.90;;;;;;4947661;29;20743;-61
2023/01/08 11:08:53;;;;;;;3.20;2.93;;;9.30;99.90;;;;;;4949045;28;20223;-61
2023/01/08 11:11:21;;;;;;;3.53;3.20;;;9.40;99.90;;;;;;4949115;29;20240;-60
2023/01/08 11:13:58;;;;;;;3.50;3.10;;;9.70;99.90;;;;;;4949103;28;20244;-60
2023/01/08 11:16:35;;;;;;;3.10;2.80;;;9.80;99.90;;;;;;4949124;29;20234;-58
2023/01/08 11:19:05;;;;;;;3.27;2.70;;;10.10;99.90;;;;;;4947705;29;20235;-60
2023/01/08 11:21:35;;;;;;;3.47;2.70;;;10.30;99.90;;;;;;4948158;29;20223;-60
2023/01/08 11:24:12;;;;;;;4.03;2.63;;;10.40;99.90;;;;;;4947391;28;20266;-60
2023/01/08 11:26:44;;;;;;;3.43;2.43;;;10.50;99.90;;;;;;4948844;29;20228;-60
2023/01/08 11:29:15;;;;;;;4.07;2.57;;;10.60;99.90;;;;;;4948447;28;20228;-60
2023/01/08 11:31:53;;;;;;;3.80;2.20;;;10.60;99.90;;;;;;4948038;28;20227;-61
2023/01/08 11:34:28;;;;;;;2.73;2.10;;;10.50;99.90;;;;;;4947951;29;20275;-60
2023/01/08 11:37:03;;;;;;;3.33;2.30;;;10.40;99.90;;;;;;4948295;29;20239;-61
2023/01/08 11:39:33;;;;;;;2.87;1.80;;;10.40;99.90;;;;;;4948340;28;20235;-60
2023/01/08 11:42:15;;;;;;;2.97;2.00;;;10.50;99.90;;;;;;4946781;29;20700;-60
2023/01/08 11:44:56;;;;;;;23.90;11.13;;;10.60;99.90;;;;;;4948380;29;20223;-60
2023/01/08 11:47:45;;;;;;;6.83;3.53;;;10.70;99.90;;;;;;4948350;29;20261;-60
2023/01/08 11:50:21;;;;;;;3.70;2.30;;;10.80;99.90;;;;;;4948414;29;20228;-61
2023/01/08 11:53:06;;;;;;;12.50;7.77;;;10.80;99.90;;;;;;4947781;29;20320;-61
2023/01/08 11:55:45;;;;;;;3.77;1.93;;;10.70;99.90;;;;;;4947928;29;20767;-60
2023/01/08 11:58:28;;;;;;;10.83;4.60;;;10.80;99.90;;;;;;4947296;29;20224;-61
2023/01/08 12:01:15;;;;;;;4.67;2.27;;;10.80;99.90;;;;;;4948040;28;20247;-61
2023/01/08 12:03:46;;;;;;;8.33;3.13;;;10.80;99.90;;;;;;4948270;29;20236;-61
2023/01/08 12:06:28;;;;;;;5.23;2.40;;;10.80;99.90;;;;;;4949287;28;20229;-58
2023/01/08 12:09:08;;;;;;;6.40;3.27;;;10.80;99.90;;;;;;4950292;29;20687;-60
2023/01/08 12:11:42;;;;;;;11.33;5.17;;;10.80;99.90;;;;;;4951374;29;20259;-60
2023/01/08 12:14:28;;;;;;;11.13;4.70;;;10.90;99.90;;;;;;4951774;28;20225;-60
2023/01/08 12:17:11;;;;;;;10.53;4.63;;;10.80;99.90;;;;;;4951619;29;20235;-60
2023/01/08 12:19:54;;;;;;;3.93;2.13;;;10.80;99.90;;;;;;4951577;28;20224;-61
2023/01/08 12:22:34;;;;;;;6.00;2.90;;;10.80;99.90;;;;;;4950886;29;20246;-59
2023/01/08 12:25:21;;;;;;;3.27;1.73;;;10.90;99.90;;;;;;4949121;29;20227;-59
2023/01/08 12:27:59;;;;;;;4.17;1.97;;;10.90;99.90;;;;;;4950374;29;20581;-60
2023/01/08 12:30:40;;;;;;;6.10;2.70;;;10.80;99.90;;;;;;4950988;28;20721;-60
2023/01/08 12:33:14;;;;;;;3.27;1.90;;;10.80;99.90;;;;;;4951304;29;20248;-60
2023/01/08 12:35:47;;;;;;;2.93;1.60;;;10.80;99.90;;;;;;4950925;29;20244;-60
2023/01/08 12:38:21;;;;;;;4.27;1.60;;;10.80;99.90;;;;;;4951378;28;20225;-58
2023/01/08 12:40:52;;;;;;;2.80;1.30;;;10.90;99.90;;;;;;4949433;29;20240;-60
2023/01/08 12:43:24;;;;;;;4.10;2.00;;;10.90;99.90;;;;;;4950830;29;20243;-59
2023/01/08 12:45:55;;;;;;;4.40;1.57;;;10.80;99.90;;;;;;4951134;29;20225;-60
2023/01/08 12:48:26;;;;;;;3.37;1.20;;;10.80;99.90;;;;;;4950637;28;20243;-60
2023/01/08 12:51:01;;;;;;;3.87;1.50;;;10.80;99.90;;;;;;4950636;29;20232;-60
2023/01/08 12:53:41;;;;;;;2.90;1.80;;;10.80;99.90;;;;;;4950643;29;20589;-57
2023/01/08 12:56:16;;;;;;;2.77;1.40;;;10.80;99.90;;;;;;4950355;28;20240;-60
2023/01/08 12:59:00;;;;;;;7.65;2.33;;;10.90;99.90;;;;;;4949029;28;20447;-63
2023/01/08 13:01:36;;;;;;;6.30;2.73;;;10.80;99.90;;;;;;4948190;28;20535;-59
2023/01/08 13:04:07;;;;;;;3.60;1.23;;;10.80;99.90;;;;;;4949553;29;20285;-59
2023/01/08 13:06:36;;;;;;;5.50;1.70;;;10.80;99.90;;;;;;4949148;29;20233;-59
2023/01/08 13:09:05;;;;;;;2.90;1.60;;;10.80;99.90;;;;;;4950222;28;20233;-58
2023/01/08 13:11:37;;;;;;;4.13;1.60;;;10.70;99.90;;;;;;4949996;29;20900;-57
2023/01/08 13:14:08;;;;;;;5.23;1.80;;;10.70;99.90;;;;;;4950657;29;20247;-59
2023/01/08 13:16:39;;;;;;;3.77;1.67;;;10.80;99.90;;;;;;4950528;29;20616;-59